GLO9633 SBEG-SBGR
Flight info
| Callsign | GLO9633 |
|---|---|
| Flight time | N/A |
| Altitude | 37000 |
| Route | ETAXA UZ87 OBLUG UZ42 ZARES |
| Aircraft | B738/M-SDFGIKLORWXY/LB1 |
Departure
| Time | 2026-04-24 21:00 |
|---|---|
| Airport | Eduardo Gomes International Airport (SBEG) |
Arrival
| Time | N/A |
|---|---|
| Airport | São Paulo/Guarulhos–Governor André Franco Montoro International Airport (SBGR) |
| Time | Latitude | Longitude | Altitude | Speed | Heading |
|---|---|---|---|---|---|
| 2026-04-24 20:38 | -3.03201 | -60.04245 | 268 ft | 0 kts | 344° |
| 2026-04-24 20:49 | -3.03206 | -60.04244 | 267 ft | 3 kts | 344° |
| 2026-04-24 20:49 | -3.03224 | -60.04239 | 267 ft | 3 kts | 344° |
| 2026-04-24 20:50 | -3.03242 | -60.04234 | 267 ft | 3 kts | 344° |
| 2026-04-24 20:50 | -3.03260 | -60.04229 | 267 ft | 3 kts | 344° |
| 2026-04-24 20:50 | -3.03273 | -60.04225 | 267 ft | 0 kts | 344° |
| 2026-04-24 20:53 | -3.03272 | -60.04226 | 267 ft | 0 kts | 330° |
| 2026-04-24 20:54 | -3.03273 | -60.04246 | 267 ft | 6 kts | 249° |
| 2026-04-24 20:54 | -3.03294 | -60.04312 | 267 ft | 14 kts | 255° |
| 2026-04-24 20:54 | -3.03327 | -60.04414 | 267 ft | 16 kts | 253° |
| 2026-04-24 20:54 | -3.03350 | -60.04519 | 267 ft | 15 kts | 263° |
| 2026-04-24 20:55 | -3.03359 | -60.04623 | 267 ft | 15 kts | 270° |
| 2026-04-24 20:55 | -3.03356 | -60.04723 | 267 ft | 14 kts | 264° |
| 2026-04-24 20:55 | -3.03396 | -60.04808 | 267 ft | 13 kts | 232° |
| 2026-04-24 20:55 | -3.03462 | -60.04871 | 267 ft | 13 kts | 213° |
| 2026-04-24 20:56 | -3.03535 | -60.04932 | 267 ft | 15 kts | 229° |
| 2026-04-24 20:56 | -3.03586 | -60.05026 | 267 ft | 16 kts | 252° |
| 2026-04-24 20:56 | -3.03617 | -60.05139 | 267 ft | 17 kts | 255° |
| 2026-04-24 20:56 | -3.03649 | -60.05258 | 268 ft | 19 kts | 255° |
| 2026-04-24 20:57 | -3.03678 | -60.05386 | 267 ft | 19 kts | 259° |
| 2026-04-24 20:57 | -3.03690 | -60.05514 | 267 ft | 18 kts | 268° |
| 2026-04-24 20:57 | -3.03692 | -60.05638 | 267 ft | 17 kts | 270° |
| 2026-04-24 20:57 | -3.03691 | -60.05757 | 267 ft | 17 kts | 270° |
| 2026-04-24 20:58 | -3.03691 | -60.05877 | 267 ft | 18 kts | 270° |
| 2026-04-24 20:58 | -3.03692 | -60.06004 | 267 ft | 19 kts | 270° |
| 2026-04-24 20:58 | -3.03703 | -60.06135 | 267 ft | 19 kts | 236° |
| 2026-04-24 20:58 | -3.03810 | -60.06172 | 268 ft | 16 kts | 167° |
| 2026-04-24 20:59 | -3.03858 | -60.06083 | 268 ft | 17 kts | 91° |
| 2026-04-24 20:59 | -3.03858 | -60.05874 | 268 ft | 59 kts | 90° |
| 2026-04-24 20:59 | -3.03859 | -60.05217 | 267 ft | 128 kts | 90° |
| 2026-04-24 20:59 | -3.03876 | -60.04128 | 337 ft | 178 kts | 92° |
| 2026-04-24 21:00 | -3.03913 | -60.02922 | 1267 ft | 166 kts | 90° |
| 2026-04-24 21:00 | -3.03928 | -60.01767 | 2110 ft | 168 kts | 89° |
| 2026-04-24 21:00 | -3.04199 | -60.00558 | 2520 ft | 199 kts | 124° |
| 2026-04-24 21:00 | -3.05341 | -59.99633 | 2788 ft | 226 kts | 147° |
| 2026-04-24 21:01 | -3.06747 | -59.98778 | 3089 ft | 248 kts | 147° |
| 2026-04-24 21:01 | -3.08295 | -59.97825 | 3437 ft | 269 kts | 147° |
| 2026-04-24 21:01 | -3.09900 | -59.96816 | 4266 ft | 273 kts | 146° |
| 2026-04-24 21:01 | -3.11504 | -59.95788 | 5186 ft | 275 kts | 146° |
| 2026-04-24 21:02 | -3.13116 | -59.94738 | 6028 ft | 279 kts | 145° |
| 2026-04-24 21:02 | -3.14749 | -59.93660 | 6843 ft | 282 kts | 145° |
| 2026-04-24 21:02 | -3.16382 | -59.92574 | 7647 ft | 285 kts | 145° |
| 2026-04-24 21:02 | -3.18051 | -59.91457 | 8448 ft | 289 kts | 145° |
| 2026-04-24 21:03 | -3.19733 | -59.90327 | 9229 ft | 293 kts | 145° |
| 2026-04-24 21:03 | -3.21437 | -59.89180 | 10009 ft | 296 kts | 145° |
| 2026-04-24 21:03 | -3.23189 | -59.87998 | 10407 ft | 315 kts | 145° |
| 2026-04-24 21:03 | -3.25046 | -59.86744 | 10580 ft | 338 kts | 145° |
| 2026-04-24 21:04 | -3.27039 | -59.85398 | 11006 ft | 350 kts | 145° |
| 2026-04-24 21:04 | -3.29071 | -59.84024 | 11656 ft | 354 kts | 145° |
| 2026-04-24 21:04 | -3.31115 | -59.82642 | 12371 ft | 356 kts | 145° |
| 2026-04-24 21:04 | -3.33174 | -59.81249 | 13054 ft | 359 kts | 145° |
| 2026-04-24 21:05 | -3.35257 | -59.79840 | 13708 ft | 363 kts | 145° |
| 2026-04-24 21:05 | -3.37361 | -59.78417 | 14298 ft | 366 kts | 145° |
| 2026-04-24 21:05 | -3.39474 | -59.76987 | 14881 ft | 369 kts | 145° |
| 2026-04-24 21:05 | -3.41612 | -59.75541 | 15450 ft | 372 kts | 145° |
| 2026-04-24 21:06 | -3.43767 | -59.74082 | 16005 ft | 376 kts | 145° |
| 2026-04-24 21:06 | -3.45947 | -59.72606 | 16562 ft | 379 kts | 145° |
| 2026-04-24 21:06 | -3.48143 | -59.71119 | 17114 ft | 383 kts | 145° |
| 2026-04-24 21:06 | -3.50358 | -59.69621 | 17660 ft | 386 kts | 145° |
| 2026-04-24 21:07 | -3.52589 | -59.68111 | 18195 ft | 389 kts | 145° |
| 2026-04-24 21:07 | -3.54882 | -59.66664 | 18648 ft | 392 kts | 149° |
| 2026-04-24 21:07 | -3.57280 | -59.65335 | 19125 ft | 395 kts | 150° |
| 2026-04-24 21:07 | -3.59718 | -59.64052 | 19591 ft | 397 kts | 151° |
| 2026-04-24 21:08 | -3.62169 | -59.62775 | 20042 ft | 400 kts | 151° |
| 2026-04-24 21:08 | -3.64646 | -59.61477 | 20485 ft | 402 kts | 150° |
| 2026-04-24 21:08 | -3.67133 | -59.60161 | 20916 ft | 405 kts | 150° |
| 2026-04-24 21:08 | -3.69622 | -59.58833 | 21353 ft | 407 kts | 150° |
| 2026-04-24 21:09 | -3.72130 | -59.57488 | 21779 ft | 410 kts | 150° |
| 2026-04-24 21:09 | -3.74649 | -59.56132 | 22193 ft | 412 kts | 150° |
| 2026-04-24 21:09 | -3.77181 | -59.54768 | 22602 ft | 415 kts | 150° |
| 2026-04-24 21:09 | -3.79728 | -59.53394 | 22988 ft | 417 kts | 150° |
| 2026-04-24 21:10 | -3.82294 | -59.52010 | 23374 ft | 420 kts | 150° |
| 2026-04-24 21:10 | -3.84842 | -59.50636 | 23705 ft | 422 kts | 150° |
| 2026-04-24 21:10 | -3.87432 | -59.49239 | 24038 ft | 424 kts | 150° |
| 2026-04-24 21:10 | -3.90033 | -59.47837 | 24364 ft | 426 kts | 150° |
| 2026-04-24 21:11 | -3.92644 | -59.46428 | 24696 ft | 427 kts | 150° |
| 2026-04-24 21:11 | -3.95269 | -59.45013 | 25000 ft | 429 kts | 150° |
| 2026-04-24 21:11 | -3.97905 | -59.43591 | 25312 ft | 431 kts | 150° |
| 2026-04-24 21:11 | -4.00542 | -59.42168 | 25618 ft | 433 kts | 150° |
| 2026-04-24 21:12 | -4.03209 | -59.40730 | 25923 ft | 435 kts | 150° |
| 2026-04-24 21:12 | -4.04972 | -59.39778 | 26131 ft | 436 kts | 150° |
| 2026-04-24 21:12 | -4.08556 | -59.37845 | 26533 ft | 438 kts | 150° |
| 2026-04-24 21:12 | -4.11243 | -59.36394 | 26833 ft | 440 kts | 150° |
| 2026-04-24 21:13 | -4.13941 | -59.34938 | 27133 ft | 441 kts | 150° |
| 2026-04-24 21:13 | -4.16650 | -59.33476 | 27420 ft | 443 kts | 150° |
| 2026-04-24 21:13 | -4.19375 | -59.32006 | 27699 ft | 445 kts | 150° |
| 2026-04-24 21:13 | -4.22104 | -59.30535 | 27967 ft | 447 kts | 150° |
| 2026-04-24 21:14 | -4.24843 | -59.29059 | 28229 ft | 448 kts | 150° |
| 2026-04-24 21:14 | -4.27597 | -59.27575 | 28510 ft | 450 kts | 150° |
| 2026-04-24 21:14 | -4.30357 | -59.26088 | 28771 ft | 451 kts | 150° |
| 2026-04-24 21:14 | -4.33132 | -59.24592 | 29020 ft | 453 kts | 150° |
| 2026-04-24 21:15 | -4.35915 | -59.23092 | 29272 ft | 455 kts | 149° |
| 2026-04-24 21:15 | -4.38707 | -59.21586 | 29529 ft | 456 kts | 150° |
| 2026-04-24 21:15 | -4.41504 | -59.20077 | 29747 ft | 458 kts | 150° |
| 2026-04-24 21:15 | -4.44316 | -59.18560 | 29960 ft | 460 kts | 150° |
| 2026-04-24 21:16 | -4.47143 | -59.17035 | 30154 ft | 461 kts | 150° |
| 2026-04-24 21:16 | -4.49971 | -59.15510 | 30365 ft | 462 kts | 149° |
| 2026-04-24 21:16 | -4.52755 | -59.14008 | 30644 ft | 461 kts | 149° |
| 2026-04-24 21:16 | -4.55622 | -59.12461 | 30971 ft | 459 kts | 149° |
| 2026-04-24 21:17 | -4.58387 | -59.10970 | 31283 ft | 458 kts | 149° |
| 2026-04-24 21:17 | -4.61187 | -59.09459 | 31572 ft | 457 kts | 149° |
| 2026-04-24 21:17 | -4.63986 | -59.07949 | 31856 ft | 456 kts | 149° |
| 2026-04-24 21:17 | -4.65873 | -59.06930 | 32058 ft | 455 kts | 149° |
| 2026-04-24 21:18 | -4.69562 | -59.04938 | 32467 ft | 454 kts | 149° |
| 2026-04-24 21:18 | -4.72333 | -59.03442 | 32783 ft | 453 kts | 149° |
| 2026-04-24 21:18 | -4.75106 | -59.01945 | 33097 ft | 452 kts | 149° |
| 2026-04-24 21:18 | -4.77871 | -59.00452 | 33387 ft | 451 kts | 149° |
| 2026-04-24 21:19 | -4.80628 | -58.98963 | 33671 ft | 450 kts | 149° |
| 2026-04-24 21:19 | -4.83382 | -58.97475 | 33963 ft | 450 kts | 149° |
| 2026-04-24 21:19 | -4.86136 | -58.95988 | 34222 ft | 449 kts | 149° |
| 2026-04-24 21:19 | -4.88884 | -58.94504 | 34460 ft | 448 kts | 149° |
| 2026-04-24 21:20 | -4.94372 | -58.91539 | 34945 ft | 447 kts | 149° |
| 2026-04-24 21:20 | -4.97104 | -58.90062 | 35201 ft | 446 kts | 149° |
| 2026-04-24 21:20 | -4.99835 | -58.88587 | 35460 ft | 445 kts | 149° |
| 2026-04-24 21:21 | -5.02559 | -58.87115 | 35701 ft | 444 kts | 149° |
| 2026-04-24 21:21 | -5.05274 | -58.85647 | 35940 ft | 444 kts | 149° |
| 2026-04-24 21:21 | -5.07992 | -58.84178 | 36184 ft | 443 kts | 149° |
| 2026-04-24 21:21 | -5.10702 | -58.82713 | 36428 ft | 442 kts | 149° |
| 2026-04-24 21:22 | -5.13405 | -58.81251 | 36649 ft | 441 kts | 149° |
| 2026-04-24 21:22 | -5.16103 | -58.79792 | 36874 ft | 441 kts | 149° |
| 2026-04-24 21:22 | -5.18812 | -58.78327 | 36889 ft | 444 kts | 149° |
| 2026-04-24 21:23 | -5.24246 | -58.75387 | 36898 ft | 442 kts | 149° |
| 2026-04-24 21:23 | -5.29643 | -58.72469 | 36904 ft | 439 kts | 149° |
| 2026-04-24 21:24 | -5.34963 | -58.69591 | 36905 ft | 436 kts | 149° |
| 2026-04-24 21:24 | -5.40295 | -58.66706 | 36909 ft | 435 kts | 149° |
| 2026-04-24 21:25 | -5.45618 | -58.63824 | 36906 ft | 435 kts | 149° |
| 2026-04-24 21:25 | -5.50945 | -58.60939 | 36910 ft | 436 kts | 149° |
| 2026-04-24 21:26 | -5.56298 | -58.58040 | 36910 ft | 438 kts | 149° |
| 2026-04-24 21:26 | -5.61681 | -58.55124 | 36912 ft | 441 kts | 149° |
| 2026-04-24 21:27 | -5.66214 | -58.52669 | 36910 ft | 443 kts | 149° |
| 2026-04-24 21:27 | -5.71620 | -58.49739 | 36910 ft | 446 kts | 149° |
| 2026-04-24 21:28 | -5.77092 | -58.46774 | 36910 ft | 448 kts | 149° |
| 2026-04-24 21:28 | -5.82580 | -58.43799 | 36908 ft | 449 kts | 149° |
| 2026-04-24 21:29 | -5.88083 | -58.40816 | 36915 ft | 450 kts | 149° |
| 2026-04-24 21:29 | -5.93593 | -58.37828 | 36910 ft | 450 kts | 149° |
| 2026-04-24 21:30 | -5.99095 | -58.34844 | 36905 ft | 449 kts | 149° |
| 2026-04-24 21:30 | -6.04592 | -58.31862 | 36906 ft | 448 kts | 149° |
| 2026-04-24 21:31 | -6.10076 | -58.28886 | 36906 ft | 448 kts | 149° |
| 2026-04-24 21:31 | -6.15552 | -58.25914 | 36910 ft | 447 kts | 149° |
| 2026-04-24 21:32 | -6.20983 | -58.22965 | 36906 ft | 446 kts | 149° |
| 2026-04-24 21:32 | -6.26441 | -58.20000 | 36910 ft | 446 kts | 149° |
| 2026-04-24 21:33 | -6.31892 | -58.17040 | 36910 ft | 445 kts | 149° |
| 2026-04-24 21:33 | -6.37342 | -58.14079 | 36911 ft | 445 kts | 149° |
| 2026-04-24 21:34 | -6.42783 | -58.11121 | 36904 ft | 445 kts | 149° |
| 2026-04-24 21:34 | -6.48227 | -58.08162 | 36908 ft | 445 kts | 149° |
| 2026-04-24 21:35 | -6.53667 | -58.05204 | 36906 ft | 445 kts | 149° |
| 2026-04-24 21:35 | -6.59114 | -58.02242 | 36911 ft | 445 kts | 149° |
| 2026-04-24 21:36 | -6.64559 | -57.99279 | 36913 ft | 445 kts | 149° |
| 2026-04-24 21:36 | -6.70011 | -57.96313 | 36909 ft | 445 kts | 149° |
| 2026-04-24 21:37 | -6.75454 | -57.93350 | 36914 ft | 446 kts | 149° |
| 2026-04-24 21:37 | -6.80910 | -57.90380 | 36913 ft | 446 kts | 149° |
| 2026-04-24 21:38 | -6.86365 | -57.87409 | 36914 ft | 446 kts | 149° |
| 2026-04-24 21:38 | -6.91826 | -57.84435 | 36914 ft | 446 kts | 149° |
| 2026-04-24 21:39 | -6.97257 | -57.81476 | 36920 ft | 447 kts | 149° |
| 2026-04-24 21:39 | -7.02724 | -57.78496 | 36917 ft | 448 kts | 149° |
| 2026-04-24 21:40 | -7.08207 | -57.75507 | 36914 ft | 449 kts | 149° |
| 2026-04-24 21:40 | -7.13702 | -57.72510 | 36915 ft | 450 kts | 149° |
| 2026-04-24 21:41 | -7.19207 | -57.69508 | 36919 ft | 450 kts | 149° |
| 2026-04-24 21:41 | -7.24724 | -57.66498 | 36915 ft | 451 kts | 149° |
| 2026-04-24 21:42 | -7.30250 | -57.63482 | 36917 ft | 452 kts | 149° |
| 2026-04-24 21:42 | -7.35788 | -57.60459 | 36919 ft | 453 kts | 149° |
| 2026-04-24 21:43 | -7.41328 | -57.57434 | 36912 ft | 453 kts | 149° |
| 2026-04-24 21:43 | -7.46872 | -57.54406 | 36912 ft | 453 kts | 149° |
| 2026-04-24 21:44 | -7.52409 | -57.51381 | 36910 ft | 452 kts | 149° |
| 2026-04-24 21:44 | -7.57936 | -57.48360 | 36911 ft | 451 kts | 149° |
| 2026-04-24 21:45 | -7.63455 | -57.45343 | 36916 ft | 451 kts | 149° |
| 2026-04-24 21:45 | -7.68964 | -57.42331 | 36912 ft | 450 kts | 149° |
| 2026-04-24 21:46 | -7.74451 | -57.39329 | 36913 ft | 449 kts | 149° |
| 2026-04-24 21:46 | -7.79948 | -57.36321 | 36916 ft | 449 kts | 149° |
| 2026-04-24 21:47 | -7.85442 | -57.33314 | 36915 ft | 449 kts | 149° |
| 2026-04-24 21:47 | -7.90895 | -57.30328 | 36923 ft | 449 kts | 149° |
| 2026-04-24 21:48 | -7.96388 | -57.27320 | 36920 ft | 449 kts | 149° |
| 2026-04-24 21:48 | -8.01890 | -57.24306 | 36922 ft | 450 kts | 149° |
| 2026-04-24 21:49 | -8.07386 | -57.21293 | 36924 ft | 450 kts | 149° |
| 2026-04-24 21:49 | -8.12895 | -57.18274 | 36924 ft | 450 kts | 149° |
| 2026-04-24 21:50 | -8.18402 | -57.15254 | 36923 ft | 450 kts | 149° |
| 2026-04-24 21:50 | -8.23916 | -57.12229 | 36928 ft | 451 kts | 149° |
| 2026-04-24 21:51 | -8.29418 | -57.09210 | 36926 ft | 451 kts | 149° |
| 2026-04-24 21:51 | -8.34934 | -57.06183 | 36927 ft | 451 kts | 149° |
| 2026-04-24 21:52 | -8.40448 | -57.03155 | 36925 ft | 451 kts | 149° |
| 2026-04-24 21:52 | -8.45955 | -57.00130 | 36929 ft | 451 kts | 149° |
| 2026-04-24 21:53 | -8.51467 | -56.97102 | 36928 ft | 451 kts | 149° |
| 2026-04-24 21:53 | -8.56973 | -56.94076 | 36929 ft | 451 kts | 149° |
| 2026-04-24 21:54 | -8.62479 | -56.91049 | 36922 ft | 450 kts | 149° |
| 2026-04-24 21:54 | -8.67986 | -56.88020 | 36925 ft | 450 kts | 149° |
| 2026-04-24 21:55 | -8.73451 | -56.85013 | 36921 ft | 450 kts | 149° |
| 2026-04-24 21:55 | -8.78989 | -56.81965 | 36917 ft | 450 kts | 149° |
| 2026-04-24 21:56 | -8.84497 | -56.78933 | 36918 ft | 450 kts | 149° |
| 2026-04-24 21:56 | -8.89965 | -56.75922 | 36918 ft | 451 kts | 149° |
| 2026-04-24 21:57 | -8.95503 | -56.72871 | 36917 ft | 451 kts | 149° |
| 2026-04-24 21:57 | -9.00980 | -56.69852 | 36913 ft | 451 kts | 149° |
| 2026-04-24 21:58 | -9.06493 | -56.66813 | 36914 ft | 452 kts | 149° |
| 2026-04-24 21:58 | -9.12007 | -56.63772 | 36919 ft | 452 kts | 149° |
| 2026-04-24 21:59 | -9.17536 | -56.60722 | 36919 ft | 452 kts | 149° |
| 2026-04-24 21:59 | -9.23062 | -56.57672 | 36912 ft | 453 kts | 150° |
| 2026-04-24 22:00 | -9.28599 | -56.54615 | 36913 ft | 453 kts | 150° |
| 2026-04-24 22:00 | -9.34141 | -56.51554 | 36909 ft | 454 kts | 150° |
| 2026-04-24 22:01 | -9.39690 | -56.48488 | 36916 ft | 454 kts | 150° |
| 2026-04-24 22:01 | -9.45240 | -56.45421 | 36909 ft | 455 kts | 150° |
| 2026-04-24 22:02 | -9.50795 | -56.42349 | 36914 ft | 455 kts | 150° |
| 2026-04-24 22:02 | -9.56353 | -56.39274 | 36912 ft | 455 kts | 150° |
| 2026-04-24 22:03 | -9.61919 | -56.36195 | 36907 ft | 455 kts | 150° |
| 2026-04-24 22:03 | -9.67484 | -56.33113 | 36919 ft | 456 kts | 150° |
| 2026-04-24 22:04 | -9.73047 | -56.30033 | 36925 ft | 456 kts | 150° |
| 2026-04-24 22:04 | -9.78614 | -56.26950 | 36927 ft | 456 kts | 150° |
| 2026-04-24 22:05 | -9.84178 | -56.23867 | 36937 ft | 456 kts | 150° |
| 2026-04-24 22:05 | -9.89740 | -56.20783 | 36936 ft | 456 kts | 150° |
| 2026-04-24 22:06 | -9.95303 | -56.17696 | 36937 ft | 456 kts | 150° |
| 2026-04-24 22:06 | -10.00865 | -56.14609 | 36932 ft | 455 kts | 150° |
| 2026-04-24 22:07 | -10.06416 | -56.11527 | 36930 ft | 455 kts | 150° |
| 2026-04-24 22:07 | -10.11948 | -56.08455 | 36921 ft | 454 kts | 150° |
| 2026-04-24 22:08 | -10.17505 | -56.05367 | 36919 ft | 454 kts | 150° |
| 2026-04-24 22:08 | -10.23039 | -56.02291 | 36910 ft | 453 kts | 150° |
| 2026-04-24 22:09 | -10.28562 | -55.99219 | 36912 ft | 453 kts | 150° |
| 2026-04-24 22:09 | -10.34085 | -55.96147 | 36913 ft | 452 kts | 150° |
| 2026-04-24 22:10 | -10.39560 | -55.93100 | 36910 ft | 452 kts | 150° |
| 2026-04-24 22:10 | -10.45064 | -55.90035 | 36909 ft | 451 kts | 150° |
| 2026-04-24 22:11 | -10.50561 | -55.86974 | 36910 ft | 451 kts | 149° |
| 2026-04-24 22:11 | -10.56060 | -55.83909 | 36915 ft | 450 kts | 149° |
| 2026-04-24 22:12 | -10.61558 | -55.80844 | 36914 ft | 450 kts | 149° |
| 2026-04-24 22:12 | -10.67052 | -55.77780 | 36908 ft | 450 kts | 149° |
| 2026-04-24 22:13 | -10.72543 | -55.74717 | 36918 ft | 450 kts | 149° |
| 2026-04-24 22:13 | -10.78037 | -55.71650 | 36914 ft | 451 kts | 149° |
| 2026-04-24 22:14 | -10.83537 | -55.68579 | 36906 ft | 451 kts | 149° |
| 2026-04-24 22:14 | -10.88103 | -55.66029 | 36914 ft | 451 kts | 149° |
| 2026-04-24 22:15 | -10.93597 | -55.62958 | 36911 ft | 451 kts | 149° |
| 2026-04-24 22:15 | -10.99089 | -55.59887 | 36915 ft | 450 kts | 149° |
| 2026-04-24 22:16 | -11.04581 | -55.56816 | 36911 ft | 450 kts | 149° |
| 2026-04-24 22:16 | -11.10068 | -55.53745 | 36914 ft | 450 kts | 149° |
| 2026-04-24 22:17 | -11.15539 | -55.50682 | 36921 ft | 449 kts | 149° |
| 2026-04-24 22:17 | -11.21010 | -55.47617 | 36913 ft | 448 kts | 149° |
| 2026-04-24 22:18 | -11.26490 | -55.44582 | 36913 ft | 448 kts | 150° |
| 2026-04-24 22:18 | -11.32133 | -55.41862 | 36924 ft | 448 kts | 153° |
| 2026-04-24 22:19 | -11.37815 | -55.39243 | 36904 ft | 448 kts | 153° |
| 2026-04-24 22:19 | -11.43472 | -55.36598 | 36918 ft | 447 kts | 153° |
| 2026-04-24 22:20 | -11.49110 | -55.33932 | 36919 ft | 446 kts | 152° |
| 2026-04-24 22:20 | -11.54742 | -55.31261 | 36920 ft | 446 kts | 152° |
| 2026-04-24 22:21 | -11.60357 | -55.28597 | 36907 ft | 446 kts | 152° |
| 2026-04-24 22:21 | -11.65982 | -55.25929 | 36918 ft | 445 kts | 152° |
| 2026-04-24 22:22 | -11.71593 | -55.23266 | 36907 ft | 445 kts | 152° |
| 2026-04-24 22:22 | -11.77154 | -55.20524 | 36907 ft | 443 kts | 149° |
| 2026-04-24 22:23 | -11.82541 | -55.17465 | 36914 ft | 442 kts | 147° |
| 2026-04-24 22:23 | -11.87893 | -55.14352 | 36916 ft | 442 kts | 147° |
| 2026-04-24 22:24 | -11.93222 | -55.11286 | 36912 ft | 443 kts | 148° |
| 2026-04-24 22:24 | -11.98600 | -55.08214 | 36915 ft | 443 kts | 148° |
| 2026-04-24 22:25 | -12.03980 | -55.05147 | 36915 ft | 443 kts | 148° |
| 2026-04-24 22:25 | -12.09360 | -55.02079 | 36916 ft | 443 kts | 148° |
| 2026-04-24 22:26 | -12.14741 | -54.99007 | 36909 ft | 443 kts | 148° |
| 2026-04-24 22:26 | -12.20124 | -54.95932 | 36911 ft | 443 kts | 148° |
| 2026-04-24 22:27 | -12.25511 | -54.92853 | 36913 ft | 443 kts | 148° |
| 2026-04-24 22:27 | -12.30893 | -54.89776 | 36912 ft | 443 kts | 148° |
| 2026-04-24 22:28 | -12.36277 | -54.86696 | 36913 ft | 443 kts | 148° |
| 2026-04-24 22:28 | -12.41660 | -54.83615 | 36914 ft | 443 kts | 148° |
| 2026-04-24 22:29 | -12.49748 | -54.79019 | 36908 ft | 444 kts | 148° |
| 2026-04-24 22:29 | -12.55174 | -54.75993 | 36907 ft | 444 kts | 148° |
| 2026-04-24 22:30 | -12.60553 | -54.72982 | 36912 ft | 444 kts | 148° |
| 2026-04-24 22:30 | -12.65970 | -54.69936 | 36913 ft | 444 kts | 148° |
| 2026-04-24 22:31 | -12.71372 | -54.66883 | 36913 ft | 444 kts | 148° |
| 2026-04-24 22:31 | -12.76779 | -54.63826 | 36914 ft | 444 kts | 148° |
| 2026-04-24 22:32 | -12.82184 | -54.60769 | 36914 ft | 444 kts | 148° |
| 2026-04-24 22:32 | -12.87590 | -54.57712 | 36916 ft | 443 kts | 148° |
| 2026-04-24 22:33 | -12.92989 | -54.54667 | 36916 ft | 443 kts | 148° |
| 2026-04-24 22:33 | -12.98384 | -54.51626 | 36919 ft | 443 kts | 148° |
| 2026-04-24 22:34 | -13.03794 | -54.48574 | 36915 ft | 443 kts | 148° |
| 2026-04-24 22:34 | -13.09192 | -54.45526 | 36918 ft | 443 kts | 148° |
| 2026-04-24 22:35 | -13.14584 | -54.42479 | 36919 ft | 443 kts | 148° |
| 2026-04-24 22:35 | -13.19979 | -54.39429 | 36923 ft | 442 kts | 148° |
| 2026-04-24 22:36 | -13.25366 | -54.36382 | 36922 ft | 442 kts | 148° |
| 2026-04-24 22:36 | -13.30754 | -54.33333 | 36927 ft | 442 kts | 148° |
| 2026-04-24 22:37 | -13.36140 | -54.30284 | 36927 ft | 442 kts | 148° |
| 2026-04-24 22:37 | -13.41489 | -54.27253 | 36933 ft | 442 kts | 148° |
| 2026-04-24 22:38 | -13.46864 | -54.24207 | 36934 ft | 441 kts | 148° |
| 2026-04-24 22:38 | -13.52237 | -54.21160 | 36936 ft | 441 kts | 148° |
| 2026-04-24 22:39 | -13.57607 | -54.18113 | 36939 ft | 441 kts | 148° |
| 2026-04-24 22:39 | -13.62972 | -54.15067 | 36938 ft | 440 kts | 148° |
| 2026-04-24 22:40 | -13.68341 | -54.12018 | 36942 ft | 440 kts | 148° |
| 2026-04-24 22:40 | -13.73698 | -54.08974 | 36941 ft | 440 kts | 148° |
| 2026-04-24 22:41 | -13.79058 | -54.05927 | 36944 ft | 440 kts | 148° |
| 2026-04-24 22:41 | -13.84402 | -54.02886 | 36943 ft | 439 kts | 148° |
| 2026-04-24 22:42 | -13.89759 | -53.99837 | 36952 ft | 440 kts | 148° |
| 2026-04-24 22:42 | -13.95115 | -53.96787 | 36944 ft | 440 kts | 148° |
| 2026-04-24 22:43 | -14.00473 | -53.93734 | 36949 ft | 440 kts | 148° |
| 2026-04-24 22:43 | -14.05829 | -53.90681 | 36944 ft | 440 kts | 148° |
| 2026-04-24 22:44 | -14.11187 | -53.87624 | 36950 ft | 440 kts | 148° |
| 2026-04-24 22:44 | -14.16419 | -53.84638 | 36948 ft | 440 kts | 148° |
| 2026-04-24 22:45 | -14.17221 | -53.84180 | 36949 ft | 440 kts | 148° |